Time;durP1;ratioP1;P1;durP2;ratioP2;P2;SDS_P1;SDS_P2;PMS_P1;PMS_P2;Temp;Humidity;BMP_temperature;BMP_pressure;BME280_temperature;BME280_humidity;BME280_pressure;Samples;Min_cycle;Max_cycle;Signal;HPM_P1;HPM_P2
2023/01/16 00:01:18;;;;;;;;;;;;;;;;;;7389773;19;1827;-75
2023/01/16 00:03:47;;;;;;;;;;;;;;;;;;7386977;19;1322;-74
2023/01/16 00:06:15;;;;;;;;;;;;;;;;;;7388402;19;784;-75
2023/01/16 00:08:43;;;;;;;;;;;;;;;;;;7386223;19;894;-74
2023/01/16 00:11:11;;;;;;;;;;;;;;;;;;7384334;19;772;-75
2023/01/16 00:13:39;;;;;;;;;;;;;;;;;;7371320;19;1301;-75
2023/01/16 00:16:07;;;;;;;;;;;;;;;;;;7371644;19;823;-75
2023/01/16 00:18:36;;;;;;;;;;;;;;;;;;7370618;19;791;-75
2023/01/16 00:21:04;;;;;;;;;;;;;;;;;;7371067;19;1850;-75
2023/01/16 00:23:32;;;;;;;;;;;;;;;;;;7369947;19;1243;-75
2023/01/16 00:26:00;;;;;;;;;;;;;;;;;;7372102;19;831;-74
2023/01/16 00:28:28;;;;;;;;;;;;;;;;;;7371823;19;802;-76
2023/01/16 00:30:56;;;;;;;;;;;;;;;;;;7372218;19;824;-75
2023/01/16 00:33:25;;;;;;;;;;;;;;;;;;7371384;19;1287;-74
2023/01/16 00:35:53;;;;;;;;;;;;;;;;;;7368964;19;804;-74
2023/01/16 00:38:21;;;;;;;;;;;;;;;;;;7370417;19;861;-74
2023/01/16 00:40:49;;;;;;;;;;;;;;;;;;7372321;19;1821;-74
2023/01/16 00:43:17;;;;;;;;;;;;;;;;;;7368448;19;1299;-75
2023/01/16 00:45:45;;;;;;;;;;;;;;;;;;7370833;19;779;-74
2023/01/16 00:48:14;;;;;;;;;;;;;;;;;;7370573;19;818;-74
2023/01/16 00:50:42;;;;;;;;;;;;;;;;;;7371043;19;1493;-75
2023/01/16 00:53:10;;;;;;;;;;;;;;;;;;7369908;19;1389;-76
2023/01/16 00:55:41;;;;;;;;;;;;;;;;;;7368976;19;850;-75
2023/01/16 00:58:09;;;;;;;;;;;;;;;;;;7367965;19;766;-74
2023/01/16 01:00:37;;;;;;;;;;;;;;;;;;7369210;19;858;-74
2023/01/16 01:03:05;;;;;;;;;;;;;;;;;;7368101;19;1812;-75
2023/01/16 01:05:33;;;;;;;;;;;;;;;;;;7370639;19;772;-77
2023/01/16 01:08:02;;;;;;;;;;;;;;;;;;7368947;19;876;-75
2023/01/16 01:10:30;;;;;;;;;;;;;;;;;;7368735;19;780;-76
2023/01/16 01:12:58;;;;;;;;;;;;;;;;;;7369676;19;1282;-76
2023/01/16 01:15:26;;;;;;;;;;;;;;;;;;7368933;19;854;-74
2023/01/16 01:17:54;;;;;;;;;;;;;;;;;;7368592;19;795;-76
2023/01/16 01:20:22;;;;;;;;;;;;;;;;;;7371215;19;827;-76
2023/01/16 01:22:51;;;;;;;;;;;;;;;;;;7372419;19;1837;-75
2023/01/16 01:25:19;;;;;;;;;;;;;;;;;;7368016;19;810;-77
2023/01/16 01:27:47;;;;;;;;;;;;;;;;;;7370536;19;818;-75
2023/01/16 01:30:15;;;;;;;;;;;;;;;;;;7370808;19;802;-76
2023/01/16 01:32:43;;;;;;;;;;;;;;;;;;7369366;19;1349;-76
2023/01/16 01:35:11;;;;;;;;;;;;;;;;;;7369628;19;1684;-76
2023/01/16 01:37:40;;;;;;;;;;;;;;;;;;7370235;19;808;-76
2023/01/16 01:40:08;;;;;;;;;;;;;;;;;;7370428;19;780;-76
2023/01/16 01:42:51;;;;;;;;;;;;;;;;;;7367788;19;1854;-76
2023/01/16 01:45:19;;;;;;;;;;;;;;;;;;7369039;19;703;-76
2023/01/16 01:47:49;;;;;;;;;;;;;;;;;;7367821;19;833;-75
2023/01/16 01:50:17;;;;;;;;;;;;;;;;;;7370411;19;820;-75
2023/01/16 01:52:45;;;;;;;;;;;;;;;;;;7373439;19;1824;-75
2023/01/16 01:55:13;;;;;;;;;;;;;;;;;;7368709;19;859;-74
2023/01/16 01:57:41;;;;;;;;;;;;;;;;;;7367298;19;824;-74
2023/01/16 02:00:09;;;;;;;;;;;;;;;;;;7368741;19;1513;-74
2023/01/16 02:02:41;;;;;;;;;;;;;;;;;;7366926;19;1838;-76
2023/01/16 02:05:09;;;;;;;;;;;;;;;;;;7368645;19;775;-75
2023/01/16 02:07:37;;;;;;;;;;;;;;;;;;7367457;19;858;-75
2023/01/16 02:10:05;;;;;;;;;;;;;;;;;;7369221;19;872;-75
2023/01/16 02:12:33;;;;;;;;;;;;;;;;;;7368923;19;1519;-74
2023/01/16 02:15:02;;;;;;;;;;;;;;;;;;7368234;19;867;-74
2023/01/16 02:20:11;;;;;;;;;;;;;;;;;;7372999;19;868;-77
2023/01/16 02:22:39;;;;;;;;;;;;;;;;;;7369211;19;1841;-74
2023/01/16 02:25:07;;;;;;;;;;;;;;;;;;7367282;19;850;-74
2023/01/16 02:27:35;;;;;;;;;;;;;;;;;;7367494;19;856;-74
2023/01/16 02:30:03;;;;;;;;;;;;;;;;;;7368466;19;709;-74
2023/01/16 02:32:31;;;;;;;;;;;;;;;;;;7371140;19;1603;-74
2023/01/16 02:35:02;;;;;;;;;;;;;;;;;;7363624;19;1034;-74
2023/01/16 02:37:30;;;;;;;;;;;;;;;;;;7368775;19;866;-74
2023/01/16 02:39:59;;;;;;;;;;;;;;;;;;7366992;19;783;-75
2023/01/16 02:42:27;;;;;;;;;;;;;;;;;;7366840;19;1850;-75
2023/01/16 02:44:55;;;;;;;;;;;;;;;;;;7368250;19;583;-74
2023/01/16 02:47:23;;;;;;;;;;;;;;;;;;7366088;19;870;-75
2023/01/16 02:49:51;;;;;;;;;;;;;;;;;;7365848;19;831;-75
2023/01/16 02:52:19;;;;;;;;;;;;;;;;;;7368164;19;791;-75
2023/01/16 02:54:49;;;;;;;;;;;;;;;;;;7364036;19;1295;-75
2023/01/16 02:57:17;;;;;;;;;;;;;;;;;;7367191;19;872;-75
2023/01/16 02:59:45;;;;;;;;;;;;;;;;;;7367271;19;822;-74
2023/01/16 03:02:14;;;;;;;;;;;;;;;;;;7365477;19;1849;-76
2023/01/16 03:04:42;;;;;;;;;;;;;;;;;;7363348;19;1287;-75
2023/01/16 03:07:10;;;;;;;;;;;;;;;;;;7365373;19;874;-75
2023/01/16 03:09:38;;;;;;;;;;;;;;;;;;7366620;19;729;-76
2023/01/16 03:12:06;;;;;;;;;;;;;;;;;;7367058;19;874;-75
2023/01/16 03:14:35;;;;;;;;;;;;;;;;;;7362633;19;1270;-74
2023/01/16 03:17:03;;;;;;;;;;;;;;;;;;7366465;19;779;-75
2023/01/16 03:19:31;;;;;;;;;;;;;;;;;;7365463;19;768;-75
2023/01/16 03:21:59;;;;;;;;;;;;;;;;;;7367928;19;1858;-75
2023/01/16 03:24:28;;;;;;;;;;;;;;;;;;7362954;19;1299;-75
2023/01/16 03:26:56;;;;;;;;;;;;;;;;;;7367210;19;1479;-75
2023/01/16 03:29:24;;;;;;;;;;;;;;;;;;7366369;19;795;-74
2023/01/16 03:31:52;;;;;;;;;;;;;;;;;;7367020;19;854;-75
2023/01/16 03:34:21;;;;;;;;;;;;;;;;;;7363515;19;1306;-76
2023/01/16 03:36:49;;;;;;;;;;;;;;;;;;7367529;19;815;-75
2023/01/16 03:39:18;;;;;;;;;;;;;;;;;;7365590;19;922;-75
2023/01/16 03:41:46;;;;;;;;;;;;;;;;;;7364840;19;1846;-76
2023/01/16 03:44:15;;;;;;;;;;;;;;;;;;7362034;19;1369;-75
2023/01/16 03:46:43;;;;;;;;;;;;;;;;;;7365753;19;851;-75
2023/01/16 03:49:11;;;;;;;;;;;;;;;;;;7364855;19;803;-75
2023/01/16 03:51:40;;;;;;;;;;;;;;;;;;7363753;19;760;-76
2023/01/16 03:54:08;;;;;;;;;;;;;;;;;;7361207;19;1400;-75
2023/01/16 03:56:36;;;;;;;;;;;;;;;;;;7365027;19;843;-75
2023/01/16 03:59:04;;;;;;;;;;;;;;;;;;7363661;19;820;-75
2023/01/16 04:01:32;;;;;;;;;;;;;;;;;;7365350;19;806;-75
2023/01/16 04:04:00;;;;;;;;;;;;;;;;;;7361787;19;1853;-75
2023/01/16 04:06:28;;;;;;;;;;;;;;;;;;7363650;19;767;-76
2023/01/16 04:08:57;;;;;;;;;;;;;;;;;;7365267;19;802;-75
2023/01/16 04:11:25;;;;;;;;;;;;;;;;;;7370206;19;867;-75
2023/01/16 04:13:53;;;;;;;;;;;;;;;;;;7370782;19;1282;-75
2023/01/16 04:16:21;;;;;;;;;;;;;;;;;;7371789;19;819;-75
2023/01/16 04:18:49;;;;;;;;;;;;;;;;;;7369321;19;812;-76
2023/01/16 04:21:18;;;;;;;;;;;;;;;;;;7371973;19;1581;-75
2023/01/16 04:23:46;;;;;;;;;;;;;;;;;;7367947;19;1846;-76
2023/01/16 04:26:14;;;;;;;;;;;;;;;;;;7370966;19;842;-75
2023/01/16 04:28:42;;;;;;;;;;;;;;;;;;7371263;19;834;-75
2023/01/16 04:31:10;;;;;;;;;;;;;;;;;;7371208;19;857;-75
2023/01/16 04:33:38;;;;;;;;;;;;;;;;;;7369385;19;1180;-75
2023/01/16 04:36:07;;;;;;;;;;;;;;;;;;7369755;19;793;-75
2023/01/16 04:38:35;;;;;;;;;;;;;;;;;;7369705;19;804;-75
2023/01/16 04:41:03;;;;;;;;;;;;;;;;;;7370614;19;676;-75
2023/01/16 04:43:31;;;;;;;;;;;;;;;;;;7368554;19;1865;-75
2023/01/16 04:45:59;;;;;;;;;;;;;;;;;;7371137;19;803;-75
2023/01/16 04:48:27;;;;;;;;;;;;;;;;;;7370499;19;819;-76
2023/01/16 04:50:56;;;;;;;;;;;;;;;;;;7372529;19;1529;-76
2023/01/16 04:53:24;;;;;;;;;;;;;;;;;;7369898;19;1337;-75
2023/01/16 04:55:52;;;;;;;;;;;;;;;;;;7369344;19;848;-75
2023/01/16 04:58:20;;;;;;;;;;;;;;;;;;7370389;19;795;-76
2023/01/16 05:00:48;;;;;;;;;;;;;;;;;;7369841;19;783;-75
2023/01/16 05:03:17;;;;;;;;;;;;;;;;;;7368336;19;1837;-76
2023/01/16 05:05:45;;;;;;;;;;;;;;;;;;7369754;19;788;-75
2023/01/16 05:08:19;;;;;;;;;;;;;;;;;;7368732;19;800;-76
2023/01/16 05:10:47;;;;;;;;;;;;;;;;;;7370211;19;810;-76
2023/01/16 05:13:16;;;;;;;;;;;;;;;;;;7367888;19;1294;-76
2023/01/16 05:15:44;;;;;;;;;;;;;;;;;;7368953;19;886;-76
2023/01/16 05:18:12;;;;;;;;;;;;;;;;;;7369614;19;819;-76
2023/01/16 05:20:40;;;;;;;;;;;;;;;;;;7370503;19;1584;-75
2023/01/16 05:23:10;;;;;;;;;;;;;;;;;;7369097;19;1830;-76
2023/01/16 05:25:38;;;;;;;;;;;;;;;;;;7368849;19;854;-76
2023/01/16 05:28:07;;;;;;;;;;;;;;;;;;7369729;19;859;-76
2023/01/16 05:30:35;;;;;;;;;;;;;;;;;;7368306;19;771;-76
2023/01/16 05:33:04;;;;;;;;;;;;;;;;;;7369337;19;1286;-76
2023/01/16 05:35:32;;;;;;;;;;;;;;;;;;7370539;19;866;-75
2023/01/16 05:38:01;;;;;;;;;;;;;;;;;;7367498;19;799;-74
2023/01/16 05:40:29;;;;;;;;;;;;;;;;;;7369558;19;819;-75
2023/01/16 05:42:57;;;;;;;;;;;;;;;;;;7366163;19;1807;-75
2023/01/16 05:45:25;;;;;;;;;;;;;;;;;;7370019;19;659;-75
2023/01/16 05:47:53;;;;;;;;;;;;;;;;;;7368797;19;823;-75
2023/01/16 05:50:21;;;;;;;;;;;;;;;;;;7371963;19;1537;-75
2023/01/16 05:52:50;;;;;;;;;;;;;;;;;;7368539;19;1326;-75
2023/01/16 05:55:18;;;;;;;;;;;;;;;;;;7370046;19;775;-75
2023/01/16 05:57:46;;;;;;;;;;;;;;;;;;7369252;19;886;-76
2023/01/16 06:00:14;;;;;;;;;;;;;;;;;;7368307;19;870;-76
2023/01/16 06:02:43;;;;;;;;;;;;;;;;;;7369308;19;1850;-76
2023/01/16 06:05:11;;;;;;;;;;;;;;;;;;7368257;19;967;-75
2023/01/16 06:07:39;;;;;;;;;;;;;;;;;;7367548;19;769;-76
2023/01/16 06:10:08;;;;;;;;;;;;;;;;;;7370322;19;819;-75
2023/01/16 06:12:36;;;;;;;;;;;;;;;;;;7369008;19;1350;-76
2023/01/16 06:15:04;;;;;;;;;;;;;;;;;;7368585;19;802;-76
2023/01/16 06:17:32;;;;;;;;;;;;;;;;;;7369505;19;787;-77
2023/01/16 06:20:01;;;;;;;;;;;;;;;;;;7370863;19;1609;-76
2023/01/16 06:22:29;;;;;;;;;;;;;;;;;;7369066;19;1346;-76
2023/01/16 06:24:57;;;;;;;;;;;;;;;;;;7365477;19;1848;-75
2023/01/16 06:27:25;;;;;;;;;;;;;;;;;;7368098;19;796;-78
2023/01/16 06:29:53;;;;;;;;;;;;;;;;;;7368197;19;802;-76
2023/01/16 06:32:21;;;;;;;;;;;;;;;;;;7365907;19;807;-76
2023/01/16 06:34:50;;;;;;;;;;;;;;;;;;7365269;19;1301;-76
2023/01/16 06:37:18;;;;;;;;;;;;;;;;;;7367679;19;827;-76
2023/01/16 06:39:46;;;;;;;;;;;;;;;;;;7366570;19;799;-76
2023/01/16 06:42:14;;;;;;;;;;;;;;;;;;7367983;19;795;-76
2023/01/16 06:44:43;;;;;;;;;;;;;;;;;;7364854;19;1849;-72
2023/01/16 06:47:11;;;;;;;;;;;;;;;;;;7369205;19;863;-76
2023/01/16 06:49:39;;;;;;;;;;;;;;;;;;7370642;19;1521;-76
2023/01/16 06:52:07;;;;;;;;;;;;;;;;;;7367548;19;796;-75
2023/01/16 06:54:35;;;;;;;;;;;;;;;;;;7364707;19;1271;-74
2023/01/16 06:57:03;;;;;;;;;;;;;;;;;;7368031;19;858;-76
2023/01/16 06:59:32;;;;;;;;;;;;;;;;;;7365284;19;855;-76
2023/01/16 07:02:00;;;;;;;;;;;;;;;;;;7366884;19;800;-77
2023/01/16 07:04:28;;;;;;;;;;;;;;;;;;7366441;19;1854;-75
2023/01/16 07:06:56;;;;;;;;;;;;;;;;;;7368778;19;572;-76
2023/01/16 07:09:28;;;;;;;;;;;;;;;;;;7368687;19;1893;-75
2023/01/16 07:11:56;;;;;;;;;;;;;;;;;;7368222;19;779;-75
2023/01/16 07:22:38;;;;;;;;;;;;;;;;;;7367514;19;811;-76
2023/01/16 07:25:07;;;;;;;;;;;;;;;;;;7365317;19;1903;-74
2023/01/16 07:27:35;;;;;;;;;;;;;;;;;;7366537;19;804;-76
2023/01/16 07:30:03;;;;;;;;;;;;;;;;;;7368150;19;843;-77
2023/01/16 07:32:32;;;;;;;;;;;;;;;;;;7372056;19;1267;-74
2023/01/16 07:35:00;;;;;;;;;;;;;;;;;;7371896;19;807;-75
2023/01/16 07:37:29;;;;;;;;;;;;;;;;;;7369250;19;947;-76
2023/01/16 07:39:57;;;;;;;;;;;;;;;;;;7366960;19;888;-73
2023/01/16 07:42:25;;;;;;;;;;;;;;;;;;7372346;19;1675;-75
2023/01/16 07:44:56;;;;;;;;;;;;;;;;;;7374155;19;1823;-74
2023/01/16 07:47:24;;;;;;;;;;;;;;;;;;7374681;19;839;-73
2023/01/16 07:49:53;;;;;;;;;;;;;;;;;;7377752;19;915;-75
2023/01/16 07:52:21;;;;;;;;;;;;;;;;;;7373534;19;810;-75
2023/01/16 07:54:49;;;;;;;;;;;;;;;;;;7373087;19;1246;-76
2023/01/16 07:57:17;;;;;;;;;;;;;;;;;;7375496;19;812;-74
2023/01/16 07:59:46;;;;;;;;;;;;;;;;;;7376588;19;858;-74
2023/01/16 08:02:14;;;;;;;;;;;;;;;;;;7379824;19;1701;-73
2023/01/16 08:04:42;;;;;;;;;;;;;;;;;;7372945;19;1862;-74
2023/01/16 08:07:10;;;;;;;;;;;;;;;;;;7374192;19;782;-73
2023/01/16 08:09:38;;;;;;;;;;;;;;;;;;7370194;19;945;-75
2023/01/16 08:12:06;;;;;;;;;;;;;;;;;;7375953;19;981;-75
2023/01/16 08:14:35;;;;;;;;;;;;;;;;;;7377458;19;1665;-76
2023/01/16 08:17:03;;;;;;;;;;;;;;;;;;7374191;19;871;-75
2023/01/16 08:19:31;;;;;;;;;;;;;;;;;;7373500;19;763;-74
2023/01/16 08:21:59;;;;;;;;;;;;;;;;;;7371957;19;847;-75
2023/01/16 08:24:28;;;;;;;;;;;;;;;;;;7371312;19;1829;-77
2023/01/16 08:26:56;;;;;;;;;;;;;;;;;;7373226;19;855;-76
2023/01/16 08:29:24;;;;;;;;;;;;;;;;;;7372564;19;850;-75
2023/01/16 08:31:53;;;;;;;;;;;;;;;;;;7371265;19;823;-75
2023/01/16 08:34:21;;;;;;;;;;;;;;;;;;7370920;19;1357;-74
2023/01/16 08:36:49;;;;;;;;;;;;;;;;;;7372177;19;779;-74
2023/01/16 08:39:17;;;;;;;;;;;;;;;;;;7370336;19;851;-75
2023/01/16 08:52:30;;;;;;;;;;;;;;;;;;7372153;19;750;-72
2023/01/16 08:54:58;;;;;;;;;;;;;;;;;;7371168;19;979;-73
2023/01/16 08:57:27;;;;;;;;;;;;;;;;;;7373010;19;865;-74
2023/01/16 08:59:55;;;;;;;;;;;;;;;;;;7371121;19;925;-75
2023/01/16 09:02:23;;;;;;;;;;;;;;;;;;7373968;19;850;-75
2023/01/16 09:04:54;;;;;;;;;;;;;;;;;;7370486;19;1840;-76
2023/01/16 09:07:23;;;;;;;;;;;;;;;;;;7373213;19;739;-73
2023/01/16 09:09:54;;;;;;;;;;;;;;;;;;7370885;19;1063;-75
2023/01/16 09:15:03;;;;;;;;;;;;;;;;;;7374532;19;1845;-75
2023/01/16 09:17:31;;;;;;;;;;;;;;;;;;7372497;19;786;-74
2023/01/16 09:19:59;;;;;;;;;;;;;;;;;;7371572;19;985;-74
2023/01/16 09:22:27;;;;;;;;;;;;;;;;;;7371411;19;736;-74
2023/01/16 09:24:55;;;;;;;;;;;;;;;;;;7369314;19;1837;-72
2023/01/16 09:27:24;;;;;;;;;;;;;;;;;;7370522;19;798;-73
2023/01/16 09:29:52;;;;;;;;;;;;;;;;;;7370119;19;832;-72
2023/01/16 09:32:20;;;;;;;;;;;;;;;;;;7370477;19;858;-72
2023/01/16 09:34:49;;;;;;;;;;;;;;;;;;7368219;19;1330;-73
2023/01/16 09:37:17;;;;;;;;;;;;;;;;;;7369202;19;858;-72
2023/01/16 09:39:45;;;;;;;;;;;;;;;;;;7369684;19;815;-73
2023/01/16 09:44:54;;;;;;;;;;;;;;;;;;7371717;19;1863;-75
2023/01/16 09:47:22;;;;;;;;;;;;;;;;;;7368759;19;857;-74
2023/01/16 09:49:50;;;;;;;;;;;;;;;;;;7368671;19;756;-75
2023/01/16 10:00:20;;;;;;;;;;;;;;;;;;7369904;19;829;-74
2023/01/16 10:02:48;;;;;;;;;;;;;;;;;;7368597;19;1300;-74
2023/01/16 10:05:17;;;;;;;;;;;;;;;;;;7368318;19;1822;-76
2023/01/16 10:07:45;;;;;;;;;;;;;;;;;;7370391;19;1876;-74
2023/01/16 10:10:14;;;;;;;;;;;;;;;;;;7370359;19;2163;-74
2023/01/16 10:12:42;;;;;;;;;;;;;;;;;;7369464;19;1353;-74
2023/01/16 10:15:10;;;;;;;;;;;;;;;;;;7370537;19;899;-74
2023/01/16 10:17:38;;;;;;;;;;;;;;;;;;7370806;19;1585;-73
2023/01/16 10:20:07;;;;;;;;;;;;;;;;;;7370648;19;789;-74
2023/01/16 10:22:35;;;;;;;;;;;;;;;;;;7374012;19;1308;-74
2023/01/16 10:25:03;;;;;;;;;;;;;;;;;;7373044;19;1849;-77
2023/01/16 10:27:31;;;;;;;;;;;;;;;;;;7369095;19;863;-72
2023/01/16 10:29:59;;;;;;;;;;;;;;;;;;7371736;19;818;-76
2023/01/16 10:32:27;;;;;;;;;;;;;;;;;;7367742;19;893;-75
2023/01/16 10:34:56;;;;;;;;;;;;;;;;;;7370298;19;869;-74
2023/01/16 10:37:24;;;;;;;;;;;;;;;;;;7370518;19;2206;-74
2023/01/16 10:39:52;;;;;;;;;;;;;;;;;;7366030;19;837;-75
2023/01/16 10:50:22;;;;;;;;;;;;;;;;;;7369411;19;837;-76
2023/01/16 10:52:50;;;;;;;;;;;;;;;;;;7367288;19;1302;-75
2023/01/16 10:55:19;;;;;;;;;;;;;;;;;;7368430;19;876;-74
2023/01/16 10:57:47;;;;;;;;;;;;;;;;;;7367487;19;815;-74
2023/01/16 11:00:15;;;;;;;;;;;;;;;;;;7366662;19;807;-74
2023/01/16 11:02:43;;;;;;;;;;;;;;;;;;7367004;19;1243;-75
2023/01/16 11:05:11;;;;;;;;;;;;;;;;;;7365085;19;1838;-73
2023/01/16 11:07:39;;;;;;;;;;;;;;;;;;7372864;19;1898;-74
2023/01/16 11:10:08;;;;;;;;;;;;;;;;;;7366082;19;906;-71
2023/01/16 11:20:38;;;;;;;;;;;;;;;;;;7367963;19;817;-74
2023/01/16 11:23:06;;;;;;;;;;;;;;;;;;7370650;19;1837;-76
2023/01/16 11:25:34;;;;;;;;;;;;;;;;;;7364467;19;1850;-75
2023/01/16 11:28:02;;;;;;;;;;;;;;;;;;7367432;19;841;-76
2023/01/16 11:30:30;;;;;;;;;;;;;;;;;;7368601;19;822;-73
2023/01/16 11:32:59;;;;;;;;;;;;;;;;;;7366156;19;1354;-76
2023/01/16 11:35:27;;;;;;;;;;;;;;;;;;7369096;19;735;-75
2023/01/16 11:37:56;;;;;;;;;;;;;;;;;;7366650;19;870;-73
2023/01/16 11:40:24;;;;;;;;;;;;;;;;;;7368654;19;1887;-76
2023/01/16 11:48:25;;;;;;;;;;;;;;;;;;7366814;19;792;-73
2023/01/16 11:50:53;;;;;;;;;;;;;;;;;;7367155;19;791;-73
2023/01/16 11:53:21;;;;;;;;;;;;;;;;;;7370435;19;1862;-74
2023/01/16 11:55:50;;;;;;;;;;;;;;;;;;7370464;19;774;-75
2023/01/16 11:58:18;;;;;;;;;;;;;;;;;;7369536;19;1874;-74
2023/01/16 12:00:46;;;;;;;;;;;;;;;;;;7367595;19;831;-75
2023/01/16 12:03:15;;;;;;;;;;;;;;;;;;7366572;19;1341;-76
2023/01/16 12:05:56;;;;;;;;;;;;;;;;;;7364283;19;1846;-72
2023/01/16 12:08:24;;;;;;;;;;;;;;;;;;7365117;19;832;-74
2023/01/16 12:10:52;;;;;;;;;;;;;;;;;;7365957;19;876;-74
2023/01/16 12:16:04;;;;;;;;;;;;;;;;;;7365883;19;1110;-74
2023/01/16 12:18:32;;;;;;;;;;;;;;;;;;7367330;19;869;-75
2023/01/16 12:21:00;;;;;;;;;;;;;;;;;;7368264;19;739;-76
2023/01/16 12:23:30;;;;;;;;;;;;;;;;;;7373298;19;1652;-77
2023/01/16 12:25:58;;;;;;;;;;;;;;;;;;7367528;19;1841;-76
2023/01/16 12:28:26;;;;;;;;;;;;;;;;;;7370138;19;1115;-75
2023/01/16 12:33:46;;;;;;;;;;;;;;;;;;7371872;19;1266;-72
2023/01/16 12:36:14;;;;;;;;;;;;;;;;;;7371944;19;857;-74
2023/01/16 12:38:43;;;;;;;;;;;;;;;;;;7372949;19;846;-74
2023/01/16 12:43:51;;;;;;;;;;;;;;;;;;7373262;19;1274;-73
2023/01/16 12:46:20;;;;;;;;;;;;;;;;;;7370999;19;1831;-73
2023/01/16 12:48:48;;;;;;;;;;;;;;;;;;7373263;19;856;-74
2023/01/16 12:51:16;;;;;;;;;;;;;;;;;;7376088;19;1438;-74
2023/01/16 12:53:44;;;;;;;;;;;;;;;;;;7379108;19;1639;-74
2023/01/16 12:56:12;;;;;;;;;;;;;;;;;;7376751;19;787;-74
2023/01/16 12:58:40;;;;;;;;;;;;;;;;;;7374163;19;748;-73
2023/01/16 13:01:09;;;;;;;;;;;;;;;;;;7376385;19;1028;-74
2023/01/16 13:03:39;;;;;;;;;;;;;;;;;;7377167;19;1236;-74
2023/01/16 13:06:07;;;;;;;;;;;;;;;;;;7390126;19;1807;-74
2023/01/16 13:08:35;;;;;;;;;;;;;;;;;;7395980;19;866;-74
2023/01/16 13:13:44;;;;;;;;;;;;;;;;;;7392319;19;1369;-73
2023/01/16 13:16:13;;;;;;;;;;;;;;;;;;7394582;19;787;-73
2023/01/16 13:18:41;;;;;;;;;;;;;;;;;;7394426;19;1087;-73
2023/01/16 13:21:12;;;;;;;;;;;;;;;;;;7395684;19;1110;-73
2023/01/16 13:23:41;;;;;;;;;;;;;;;;;;7396058;19;1895;-74
2023/01/16 13:26:09;;;;;;;;;;;;;;;;;;7389636;19;1819;-74
2023/01/16 13:28:42;;;;;;;;;;;;;;;;;;7372912;19;705;-73
2023/01/16 13:31:10;;;;;;;;;;;;;;;;;;7375708;19;1865;-75
2023/01/16 13:33:39;;;;;;;;;;;;;;;;;;7369502;19;1337;-73
2023/01/16 13:36:08;;;;;;;;;;;;;;;;;;7371263;19;803;-73
2023/01/16 13:38:38;;;;;;;;;;;;;;;;;;7372027;19;1526;-71
2023/01/16 13:41:07;;;;;;;;;;;;;;;;;;7373658;19;1512;-71
2023/01/16 13:46:15;;;;;;;;;;;;;;;;;;7367483;19;1849;-72
2023/01/16 13:48:44;;;;;;;;;;;;;;;;;;7368254;19;823;-73
2023/01/16 13:51:13;;;;;;;;;;;;;;;;;;7369712;19;846;-73
2023/01/16 13:53:41;;;;;;;;;;;;;;;;;;7367766;19;1287;-73
2023/01/16 13:56:09;;;;;;;;;;;;;;;;;;7369410;19;838;-76
2023/01/16 13:58:38;;;;;;;;;;;;;;;;;;7368316;19;801;-74
2023/01/16 14:01:06;;;;;;;;;;;;;;;;;;7371907;19;848;-74
2023/01/16 14:03:34;;;;;;;;;;;;;;;;;;7372264;19;1311;-74
2023/01/16 14:06:02;;;;;;;;;;;;;;;;;;7366314;19;1898;-74
2023/01/16 14:11:13;;;;;;;;;;;;;;;;;;7373336;19;1627;-73
2023/01/16 14:13:41;;;;;;;;;;;;;;;;;;7367471;19;1927;-72
2023/01/16 14:18:50;;;;;;;;;;;;;;;;;;7366109;19;772;-73
2023/01/16 14:21:18;;;;;;;;;;;;;;;;;;7367091;19;843;-74
2023/01/16 14:26:33;;;;;;;;;;;;;;;;;;7365211;19;1874;-74
2023/01/16 14:29:01;;;;;;;;;;;;;;;;;;7367892;19;820;-74
2023/01/16 14:31:29;;;;;;;;;;;;;;;;;;7370363;19;1564;-74
2023/01/16 14:33:58;;;;;;;;;;;;;;;;;;7369142;19;1551;-75
2023/01/16 14:36:26;;;;;;;;;;;;;;;;;;7368544;19;890;-75
2023/01/16 14:38:54;;;;;;;;;;;;;;;;;;7367202;19;859;-75
2023/01/16 14:57:29;;;;;;;;;;;;;;;;;;7368730;19;799;-76
2023/01/16 14:59:57;;;;;;;;;;;;;;;;;;7368257;19;802;-77
2023/01/16 15:02:30;;;;;;;;;;;;;;;;;;7367560;19;1655;-77
2023/01/16 15:04:58;;;;;;;;;;;;;;;;;;7367818;19;1839;-76
2023/01/16 15:07:27;;;;;;;;;;;;;;;;;;7369764;19;1702;-77
2023/01/16 15:09:55;;;;;;;;;;;;;;;;;;7365678;19;1610;-76
2023/01/16 15:12:23;;;;;;;;;;;;;;;;;;7366209;19;756;-76
2023/01/16 15:14:51;;;;;;;;;;;;;;;;;;7363217;19;1263;-77
2023/01/16 15:22:41;;;;;;;;;;;;;;;;;;7366830;19;1330;-78
2023/01/16 15:25:09;;;;;;;;;;;;;;;;;;7367571;19;1845;-77
2023/01/16 15:27:37;;;;;;;;;;;;;;;;;;7366700;19;888;-76
2023/01/16 15:30:05;;;;;;;;;;;;;;;;;;7366963;19;832;-76
2023/01/16 15:32:33;;;;;;;;;;;;;;;;;;7366296;19;1286;-77
2023/01/16 15:35:02;;;;;;;;;;;;;;;;;;7366191;19;839;-77
2023/01/16 15:37:32;;;;;;;;;;;;;;;;;;7366866;19;784;-78
2023/01/16 15:40:00;;;;;;;;;;;;;;;;;;7367052;19;766;-77
2023/01/16 15:47:50;;;;;;;;;;;;;;;;;;7366408;19;787;-77
2023/01/16 15:50:18;;;;;;;;;;;;;;;;;;7367010;19;1846;-76
2023/01/16 15:52:46;;;;;;;;;;;;;;;;;;7365968;19;1255;-76
2023/01/16 15:55:14;;;;;;;;;;;;;;;;;;7365763;19;847;-76
2023/01/16 15:57:43;;;;;;;;;;;;;;;;;;7365914;19;829;-75
2023/01/16 16:00:11;;;;;;;;;;;;;;;;;;7365632;19;934;-76
2023/01/16 16:02:39;;;;;;;;;;;;;;;;;;7365465;19;1295;-75
2023/01/16 16:05:08;;;;;;;;;;;;;;;;;;7369550;19;1857;-73
2023/01/16 16:07:36;;;;;;;;;;;;;;;;;;7373918;19;1896;-73
2023/01/16 16:10:06;;;;;;;;;;;;;;;;;;7369730;19;800;-75
2023/01/16 16:12:32;;;;;;;;;;;;;;;;;;7373542;19;1274;-76
2023/01/16 16:20:21;;;;;;;;;;;;;;;;;;7372716;19;811;-76
2023/01/16 16:22:52;;;;;;;;;;;;;;;;;;7371485;19;1266;-76
2023/01/16 16:25:20;;;;;;;;;;;;;;;;;;7371892;19;1803;-76
2023/01/16 16:27:49;;;;;;;;;;;;;;;;;;7370186;19;898;-75
2023/01/16 16:30:17;;;;;;;;;;;;;;;;;;7371461;19;760;-76
2023/01/16 16:32:45;;;;;;;;;;;;;;;;;;7369523;19;1346;-75
2023/01/16 16:35:13;;;;;;;;;;;;;;;;;;7369680;19;832;-75
2023/01/16 16:37:41;;;;;;;;;;;;;;;;;;7374557;19;1833;-78
2023/01/16 16:40:10;;;;;;;;;;;;;;;;;;7378239;19;1346;-78
2023/01/16 16:42:38;;;;;;;;;;;;;;;;;;7377731;19;1357;-76
2023/01/16 16:45:06;;;;;;;;;;;;;;;;;;7382099;19;1769;-77
2023/01/16 16:47:34;;;;;;;;;;;;;;;;;;7371968;19;1822;-74
2023/01/16 16:50:03;;;;;;;;;;;;;;;;;;7371449;19;812;-76
2023/01/16 16:52:31;;;;;;;;;;;;;;;;;;7384641;19;1661;-78
2023/01/16 16:54:59;;;;;;;;;;;;;;;;;;7389123;19;827;-78
2023/01/16 16:57:28;;;;;;;;;;;;;;;;;;7378972;19;1201;-75
2023/01/16 16:59:56;;;;;;;;;;;;;;;;;;7375703;19;851;-76
2023/01/16 17:02:24;;;;;;;;;;;;;;;;;;7373795;19;866;-76
2023/01/16 17:04:52;;;;;;;;;;;;;;;;;;7373934;19;2202;-76
2023/01/16 17:07:21;;;;;;;;;;;;;;;;;;7372314;19;1815;-76
2023/01/16 17:09:49;;;;;;;;;;;;;;;;;;7371726;19;1843;-76
2023/01/16 17:12:17;;;;;;;;;;;;;;;;;;7372384;19;826;-75
2023/01/16 17:14:45;;;;;;;;;;;;;;;;;;7375896;19;1850;-76
2023/01/16 17:17:14;;;;;;;;;;;;;;;;;;7373426;19;892;-76
2023/01/16 17:19:42;;;;;;;;;;;;;;;;;;7373044;19;857;-76
2023/01/16 17:22:10;;;;;;;;;;;;;;;;;;7374242;19;1493;-75
2023/01/16 17:24:38;;;;;;;;;;;;;;;;;;7372984;19;1601;-76
2023/01/16 17:27:10;;;;;;;;;;;;;;;;;;7372271;19;1845;-75
2023/01/16 17:29:39;;;;;;;;;;;;;;;;;;7371875;19;774;-75
2023/01/16 17:32:07;;;;;;;;;;;;;;;;;;7371983;19;814;-75
2023/01/16 17:34:35;;;;;;;;;;;;;;;;;;7371601;19;1878;-75
2023/01/16 17:37:06;;;;;;;;;;;;;;;;;;7373694;19;881;-75
2023/01/16 17:39:35;;;;;;;;;;;;;;;;;;7373050;19;797;-75
2023/01/16 17:47:26;;;;;;;;;;;;;;;;;;7377933;19;1849;-74
2023/01/16 17:52:35;;;;;;;;;;;;;;;;;;7376008;19;1286;-75
2023/01/16 17:57:44;;;;;;;;;;;;;;;;;;7369439;19;822;-74
2023/01/16 18:00:12;;;;;;;;;;;;;;;;;;7369630;19;815;-72
2023/01/16 18:02:41;;;;;;;;;;;;;;;;;;7369365;19;1325;-73
2023/01/16 18:05:09;;;;;;;;;;;;;;;;;;7369001;19;1155;-73
2023/01/16 18:07:37;;;;;;;;;;;;;;;;;;7365110;19;1846;-72
2023/01/16 18:10:05;;;;;;;;;;;;;;;;;;7367892;19;858;-72
2023/01/16 18:17:55;;;;;;;;;;;;;;;;;;7367906;19;794;-73
2023/01/16 18:20:23;;;;;;;;;;;;;;;;;;7368495;19;842;-72
2023/01/16 18:22:51;;;;;;;;;;;;;;;;;;7372760;19;1262;-74
2023/01/16 18:25:19;;;;;;;;;;;;;;;;;;7369561;19;953;-73
2023/01/16 18:27:48;;;;;;;;;;;;;;;;;;7364120;19;1821;-74
2023/01/16 18:30:16;;;;;;;;;;;;;;;;;;7369929;19;811;-72
2023/01/16 18:32:44;;;;;;;;;;;;;;;;;;7368820;19;1282;-72
2023/01/16 18:35:12;;;;;;;;;;;;;;;;;;7367220;19;822;-72
2023/01/16 18:37:40;;;;;;;;;;;;;;;;;;7369063;19;762;-72
2023/01/16 19:02:04;;;;;;;;;;;;;;;;;;7372926;19;1114;-74
2023/01/16 19:04:33;;;;;;;;;;;;;;;;;;7369499;19;1341;-73
2023/01/16 19:07:01;;;;;;;;;;;;;;;;;;7368556;19;1838;-73
2023/01/16 19:09:29;;;;;;;;;;;;;;;;;;7371382;19;867;-73
2023/01/16 19:11:58;;;;;;;;;;;;;;;;;;7371932;19;792;-74
2023/01/16 19:14:26;;;;;;;;;;;;;;;;;;7367232;19;1352;-73
2023/01/16 19:16:55;;;;;;;;;;;;;;;;;;7372521;19;856;-73
2023/01/16 19:19:24;;;;;;;;;;;;;;;;;;7370967;19;804;-74
2023/01/16 19:21:52;;;;;;;;;;;;;;;;;;7368782;19;863;-74
2023/01/16 19:24:22;;;;;;;;;;;;;;;;;;7365625;19;1317;-74
2023/01/16 19:26:50;;;;;;;;;;;;;;;;;;7367686;19;1866;-74
2023/01/16 19:29:18;;;;;;;;;;;;;;;;;;7367504;19;802;-74
2023/01/16 19:31:46;;;;;;;;;;;;;;;;;;7368012;19;784;-74
2023/01/16 19:34:14;;;;;;;;;;;;;;;;;;7364201;19;1297;-74
2023/01/16 19:36:44;;;;;;;;;;;;;;;;;;7371676;19;1875;-74
2023/01/16 19:39:12;;;;;;;;;;;;;;;;;;7371365;19;1599;-74
2023/01/16 19:47:01;;;;;;;;;;;;;;;;;;7373980;19;1830;-74
2023/01/16 19:49:29;;;;;;;;;;;;;;;;;;7374832;19;774;-75
2023/01/16 19:51:57;;;;;;;;;;;;;;;;;;7374740;19;825;-73
2023/01/16 19:54:26;;;;;;;;;;;;;;;;;;7375776;19;1933;-74